sensor_id;sensor_type;location;lat;lon;timestamp;temperature;humidity
20803;DHT22;10562;-33.856;151.182;2023-07-13T00:01:51;12.40;99.90
20803;DHT22;10562;-33.856;151.182;2023-07-13T00:04:24;12.50;99.90
20803;DHT22;10562;-33.856;151.182;2023-07-13T00:06:55;12.70;99.90
20803;DHT22;10562;-33.856;151.182;2023-07-13T00:09:26;13.10;99.90
20803;DHT22;10562;-33.856;151.182;2023-07-13T00:11:57;13.30;99.90
20803;DHT22;10562;-33.856;151.182;2023-07-13T00:14:29;13.70;99.90
20803;DHT22;10562;-33.856;151.182;2023-07-13T00:17:02;13.90;99.90
20803;DHT22;10562;-33.856;151.182;2023-07-13T00:19:35;13.90;99.90
20803;DHT22;10562;-33.856;151.182;2023-07-13T00:22:06;14.00;99.90
20803;DHT22;10562;-33.856;151.182;2023-07-13T00:24:37;14.00;99.90
20803;DHT22;10562;-33.856;151.182;2023-07-13T00:36:10;14.30;99.90
20803;DHT22;10562;-33.856;151.182;2023-07-13T00:38:43;14.40;99.90
20803;DHT22;10562;-33.856;151.182;2023-07-13T00:41:14;14.50;99.90
20803;DHT22;10562;-33.856;151.182;2023-07-13T00:43:44;15.10;99.90
20803;DHT22;10562;-33.856;151.182;2023-07-13T00:46:24;15.40;99.90
20803;DHT22;10562;-33.856;151.182;2023-07-13T00:48:59;15.30;99.90
20803;DHT22;10562;-33.856;151.182;2023-07-13T00:51:37;15.10;99.90
20803;DHT22;10562;-33.856;151.182;2023-07-13T00:54:13;15.10;99.90
20803;DHT22;10562;-33.856;151.182;2023-07-13T00:56:45;15.00;99.90
20803;DHT22;10562;-33.856;151.182;2023-07-13T00:59:17;15.00;99.90
20803;DHT22;10562;-33.856;151.182;2023-07-13T01:01:49;14.90;99.90
20803;DHT22;10562;-33.856;151.182;2023-07-13T01:04:20;14.90;99.90
20803;DHT22;10562;-33.856;151.182;2023-07-13T01:06:53;15.00;99.90
20803;DHT22;10562;-33.856;151.182;2023-07-13T01:09:25;15.00;99.90
20803;DHT22;10562;-33.856;151.182;2023-07-13T01:11:57;15.10;99.90
20803;DHT22;10562;-33.856;151.182;2023-07-13T01:14:27;15.10;99.90
20803;DHT22;10562;-33.856;151.182;2023-07-13T01:16:58;15.20;99.90
20803;DHT22;10562;-33.856;151.182;2023-07-13T01:19:35;15.30;99.90
20803;DHT22;10562;-33.856;151.182;2023-07-13T01:22:11;15.40;99.90
20803;DHT22;10562;-33.856;151.182;2023-07-13T01:24:42;15.50;99.90
20803;DHT22;10562;-33.856;151.182;2023-07-13T01:27:15;15.70;99.90
20803;DHT22;10562;-33.856;151.182;2023-07-13T01:29:46;15.80;99.90
20803;DHT22;10562;-33.856;151.182;2023-07-13T01:32:19;15.80;99.90
20803;DHT22;10562;-33.856;151.182;2023-07-13T01:34:52;16.00;99.90
20803;DHT22;10562;-33.856;151.182;2023-07-13T01:37:26;16.20;99.90
20803;DHT22;10562;-33.856;151.182;2023-07-13T01:40:01;16.30;99.90
20803;DHT22;10562;-33.856;151.182;2023-07-13T01:42:32;16.50;99.90
20803;DHT22;10562;-33.856;151.182;2023-07-13T01:45:03;16.60;99.90
20803;DHT22;10562;-33.856;151.182;2023-07-13T01:47:34;16.70;99.90
20803;DHT22;10562;-33.856;151.182;2023-07-13T01:50:05;17.00;99.90
20803;DHT22;10562;-33.856;151.182;2023-07-13T01:52:38;17.00;99.90
20803;DHT22;10562;-33.856;151.182;2023-07-13T01:55:09;17.10;99.90
20803;DHT22;10562;-33.856;151.182;2023-07-13T01:57:40;17.10;99.90
20803;DHT22;10562;-33.856;151.182;2023-07-13T02:00:12;17.20;99.90
20803;DHT22;10562;-33.856;151.182;2023-07-13T02:02:43;17.20;99.90
20803;DHT22;10562;-33.856;151.182;2023-07-13T02:05:15;17.30;99.90
20803;DHT22;10562;-33.856;151.182;2023-07-13T02:07:48;17.50;99.90
20803;DHT22;10562;-33.856;151.182;2023-07-13T02:10:19;17.60;99.90
20803;DHT22;10562;-33.856;151.182;2023-07-13T02:12:50;17.70;99.90
20803;DHT22;10562;-33.856;151.182;2023-07-13T02:15:21;17.70;99.90
20803;DHT22;10562;-33.856;151.182;2023-07-13T02:17:52;17.80;99.90
20803;DHT22;10562;-33.856;151.182;2023-07-13T02:20:23;17.80;99.90
20803;DHT22;10562;-33.856;151.182;2023-07-13T02:22:56;17.80;99.90
20803;DHT22;10562;-33.856;151.182;2023-07-13T02:25:27;17.80;99.90
20803;DHT22;10562;-33.856;151.182;2023-07-13T02:27:58;17.80;99.90
20803;DHT22;10562;-33.856;151.182;2023-07-13T02:30:29;17.90;99.90
20803;DHT22;10562;-33.856;151.182;2023-07-13T02:33:00;17.90;99.90
20803;DHT22;10562;-33.856;151.182;2023-07-13T02:35:31;18.00;99.90
20803;DHT22;10562;-33.856;151.182;2023-07-13T02:38:04;18.10;99.90
20803;DHT22;10562;-33.856;151.182;2023-07-13T02:40:35;18.10;99.90
20803;DHT22;10562;-33.856;151.182;2023-07-13T02:43:06;18.20;99.90
20803;DHT22;10562;-33.856;151.182;2023-07-13T02:45:37;18.30;99.90
20803;DHT22;10562;-33.856;151.182;2023-07-13T02:48:08;18.30;99.90
20803;DHT22;10562;-33.856;151.182;2023-07-13T02:50:39;18.40;99.90
20803;DHT22;10562;-33.856;151.182;2023-07-13T02:53:13;18.50;99.90
20803;DHT22;10562;-33.856;151.182;2023-07-13T02:55:44;18.50;99.90
20803;DHT22;10562;-33.856;151.182;2023-07-13T02:58:15;18.50;99.90
20803;DHT22;10562;-33.856;151.182;2023-07-13T03:00:47;18.50;99.90
20803;DHT22;10562;-33.856;151.182;2023-07-13T03:03:18;18.70;99.90
20803;DHT22;10562;-33.856;151.182;2023-07-13T03:05:57;18.80;99.90
20803;DHT22;10562;-33.856;151.182;2023-07-13T03:08:30;18.80;99.90
20803;DHT22;10562;-33.856;151.182;2023-07-13T03:11:02;18.90;99.90
20803;DHT22;10562;-33.856;151.182;2023-07-13T03:13:36;19.00;99.90
20803;DHT22;10562;-33.856;151.182;2023-07-13T03:16:07;19.00;99.90
20803;DHT22;10562;-33.856;151.182;2023-07-13T03:18:39;19.00;99.90
20803;DHT22;10562;-33.856;151.182;2023-07-13T03:21:10;19.10;99.90
20803;DHT22;10562;-33.856;151.182;2023-07-13T03:23:43;19.20;99.90
20803;DHT22;10562;-33.856;151.182;2023-07-13T03:26:17;19.30;99.90
20803;DHT22;10562;-33.856;151.182;2023-07-13T03:28:48;19.20;99.90
20803;DHT22;10562;-33.856;151.182;2023-07-13T03:31:23;19.20;99.90
20803;DHT22;10562;-33.856;151.182;2023-07-13T03:33:54;19.20;99.90
20803;DHT22;10562;-33.856;151.182;2023-07-13T03:36:28;19.30;99.90
20803;DHT22;10562;-33.856;151.182;2023-07-13T03:39:03;19.30;99.90
20803;DHT22;10562;-33.856;151.182;2023-07-13T03:41:36;19.50;99.90
20803;DHT22;10562;-33.856;151.182;2023-07-13T03:44:07;19.60;99.90
20803;DHT22;10562;-33.856;151.182;2023-07-13T03:46:38;19.60;99.90
20803;DHT22;10562;-33.856;151.182;2023-07-13T03:49:09;19.70;99.90
20803;DHT22;10562;-33.856;151.182;2023-07-13T03:51:40;19.70;99.90
20803;DHT22;10562;-33.856;151.182;2023-07-13T03:54:13;19.90;99.90
20803;DHT22;10562;-33.856;151.182;2023-07-13T03:56:44;20.00;99.90
20803;DHT22;10562;-33.856;151.182;2023-07-13T03:59:15;20.10;99.90
20803;DHT22;10562;-33.856;151.182;2023-07-13T04:01:46;20.20;99.90
20803;DHT22;10562;-33.856;151.182;2023-07-13T04:04:17;20.20;99.90
20803;DHT22;10562;-33.856;151.182;2023-07-13T04:06:48;20.30;99.90
20803;DHT22;10562;-33.856;151.182;2023-07-13T04:09:23;20.40;99.90
20803;DHT22;10562;-33.856;151.182;2023-07-13T04:11:54;20.50;99.90
20803;DHT22;10562;-33.856;151.182;2023-07-13T04:14:25;20.50;99.90
20803;DHT22;10562;-33.856;151.182;2023-07-13T04:16:56;20.50;99.90
20803;DHT22;10562;-33.856;151.182;2023-07-13T04:19:28;20.50;99.90
20803;DHT22;10562;-33.856;151.182;2023-07-13T04:21:59;20.50;99.90
20803;DHT22;10562;-33.856;151.182;2023-07-13T04:24:32;20.60;99.90
20803;DHT22;10562;-33.856;151.182;2023-07-13T04:27:03;20.70;99.90
20803;DHT22;10562;-33.856;151.182;2023-07-13T04:29:34;20.70;99.90
20803;DHT22;10562;-33.856;151.182;2023-07-13T04:32:06;20.60;99.90
20803;DHT22;10562;-33.856;151.182;2023-07-13T04:34:38;20.60;99.90
20803;DHT22;10562;-33.856;151.182;2023-07-13T04:37:09;20.60;99.90
20803;DHT22;10562;-33.856;151.182;2023-07-13T04:39:41;20.60;99.90
20803;DHT22;10562;-33.856;151.182;2023-07-13T04:42:13;20.60;99.90
20803;DHT22;10562;-33.856;151.182;2023-07-13T04:44:48;20.60;99.90
20803;DHT22;10562;-33.856;151.182;2023-07-13T04:47:19;20.50;99.90
20803;DHT22;10562;-33.856;151.182;2023-07-13T04:49:50;20.50;99.90
20803;DHT22;10562;-33.856;151.182;2023-07-13T04:52:21;20.50;99.90
20803;DHT22;10562;-33.856;151.182;2023-07-13T04:54:54;20.50;99.90
20803;DHT22;10562;-33.856;151.182;2023-07-13T04:57:25;20.60;99.90
20803;DHT22;10562;-33.856;151.182;2023-07-13T04:59:56;20.60;99.90
20803;DHT22;10562;-33.856;151.182;2023-07-13T05:02:29;20.60;99.90
20803;DHT22;10562;-33.856;151.182;2023-07-13T05:05:01;20.60;99.90
20803;DHT22;10562;-33.856;151.182;2023-07-13T05:07:32;20.60;99.90
20803;DHT22;10562;-33.856;151.182;2023-07-13T05:10:05;20.70;99.90
20803;DHT22;10562;-33.856;151.182;2023-07-13T05:12:36;20.70;99.90
20803;DHT22;10562;-33.856;151.182;2023-07-13T05:15:08;20.70;99.90
20803;DHT22;10562;-33.856;151.182;2023-07-13T05:17:39;20.70;99.90
20803;DHT22;10562;-33.856;151.182;2023-07-13T05:20:11;20.60;99.90
20803;DHT22;10562;-33.856;151.182;2023-07-13T05:22:42;20.50;99.90
20803;DHT22;10562;-33.856;151.182;2023-07-13T05:25:18;20.40;99.90
20803;DHT22;10562;-33.856;151.182;2023-07-13T05:27:49;20.30;99.90
20803;DHT22;10562;-33.856;151.182;2023-07-13T05:30:20;20.20;99.90
20803;DHT22;10562;-33.856;151.182;2023-07-13T05:32:51;20.20;99.90
20803;DHT22;10562;-33.856;151.182;2023-07-13T05:35:22;20.10;99.90
20803;DHT22;10562;-33.856;151.182;2023-07-13T05:37:53;20.00;99.90
20803;DHT22;10562;-33.856;151.182;2023-07-13T05:40:26;19.90;99.90
20803;DHT22;10562;-33.856;151.182;2023-07-13T05:42:57;19.80;99.90
20803;DHT22;10562;-33.856;151.182;2023-07-13T05:45:30;19.70;99.90
20803;DHT22;10562;-33.856;151.182;2023-07-13T05:48:01;19.50;99.90
20803;DHT22;10562;-33.856;151.182;2023-07-13T05:50:32;19.40;99.90
20803;DHT22;10562;-33.856;151.182;2023-07-13T05:53:08;19.20;99.90
20803;DHT22;10562;-33.856;151.182;2023-07-13T05:55:49;19.00;99.90
20803;DHT22;10562;-33.856;151.182;2023-07-13T05:58:21;18.90;99.90
20803;DHT22;10562;-33.856;151.182;2023-07-13T06:01:00;18.80;99.90
20803;DHT22;10562;-33.856;151.182;2023-07-13T06:03:31;18.60;99.90
20803;DHT22;10562;-33.856;151.182;2023-07-13T06:06:02;18.60;99.90
20803;DHT22;10562;-33.856;151.182;2023-07-13T06:08:33;18.40;99.90
20803;DHT22;10562;-33.856;151.182;2023-07-13T06:11:07;18.30;99.90
20803;DHT22;10562;-33.856;151.182;2023-07-13T06:13:38;18.20;99.90
20803;DHT22;10562;-33.856;151.182;2023-07-13T06:16:09;18.00;99.90
20803;DHT22;10562;-33.856;151.182;2023-07-13T06:18:40;17.90;99.90
20803;DHT22;10562;-33.856;151.182;2023-07-13T06:21:13;17.70;99.90
20803;DHT22;10562;-33.856;151.182;2023-07-13T06:23:44;17.60;99.90
20803;DHT22;10562;-33.856;151.182;2023-07-13T06:26:17;17.50;99.90
20803;DHT22;10562;-33.856;151.182;2023-07-13T06:28:48;17.40;99.90
20803;DHT22;10562;-33.856;151.182;2023-07-13T06:31:19;17.20;99.90
20803;DHT22;10562;-33.856;151.182;2023-07-13T06:33:50;17.10;99.90
20803;DHT22;10562;-33.856;151.182;2023-07-13T06:36:21;17.00;99.90
20803;DHT22;10562;-33.856;151.182;2023-07-13T06:38:51;16.90;99.90
20803;DHT22;10562;-33.856;151.182;2023-07-13T06:41:24;16.80;99.90
20803;DHT22;10562;-33.856;151.182;2023-07-13T06:43:55;16.70;99.90
20803;DHT22;10562;-33.856;151.182;2023-07-13T06:46:28;16.60;99.90
20803;DHT22;10562;-33.856;151.182;2023-07-13T06:48:59;16.50;99.90
20803;DHT22;10562;-33.856;151.182;2023-07-13T06:51:31;16.40;99.90
20803;DHT22;10562;-33.856;151.182;2023-07-13T06:54:02;16.30;99.90
20803;DHT22;10562;-33.856;151.182;2023-07-13T06:56:34;16.10;99.90
20803;DHT22;10562;-33.856;151.182;2023-07-13T06:59:05;16.00;99.90
20803;DHT22;10562;-33.856;151.182;2023-07-13T07:01:36;15.90;99.90
20803;DHT22;10562;-33.856;151.182;2023-07-13T07:04:07;15.70;99.90
20803;DHT22;10562;-33.856;151.182;2023-07-13T07:06:37;15.60;99.90
20803;DHT22;10562;-33.856;151.182;2023-07-13T07:09:08;15.50;99.90
20803;DHT22;10562;-33.856;151.182;2023-07-13T07:11:41;15.40;99.90
20803;DHT22;10562;-33.856;151.182;2023-07-13T07:14:12;15.30;99.90
20803;DHT22;10562;-33.856;151.182;2023-07-13T07:16:43;15.20;99.90
20803;DHT22;10562;-33.856;151.182;2023-07-13T07:19:14;15.10;99.90
20803;DHT22;10562;-33.856;151.182;2023-07-13T07:21:45;15.00;99.90
20803;DHT22;10562;-33.856;151.182;2023-07-13T07:24:16;14.90;99.90
20803;DHT22;10562;-33.856;151.182;2023-07-13T07:26:48;14.90;99.90
20803;DHT22;10562;-33.856;151.182;2023-07-13T07:29:19;14.80;99.90
20803;DHT22;10562;-33.856;151.182;2023-07-13T07:31:50;14.70;99.90
20803;DHT22;10562;-33.856;151.182;2023-07-13T07:34:21;14.60;99.90
20803;DHT22;10562;-33.856;151.182;2023-07-13T07:36:53;14.60;99.90
20803;DHT22;10562;-33.856;151.182;2023-07-13T07:39:24;14.70;99.90
20803;DHT22;10562;-33.856;151.182;2023-07-13T07:41:56;14.60;99.90
20803;DHT22;10562;-33.856;151.182;2023-07-13T07:44:27;14.60;99.90
20803;DHT22;10562;-33.856;151.182;2023-07-13T07:46:58;14.50;99.90
20803;DHT22;10562;-33.856;151.182;2023-07-13T07:49:29;14.50;99.90
20803;DHT22;10562;-33.856;151.182;2023-07-13T07:52:00;14.50;99.90
20803;DHT22;10562;-33.856;151.182;2023-07-13T07:54:30;14.50;99.90
20803;DHT22;10562;-33.856;151.182;2023-07-13T07:57:03;14.50;99.90
20803;DHT22;10562;-33.856;151.182;2023-07-13T07:59:34;14.40;99.90
20803;DHT22;10562;-33.856;151.182;2023-07-13T08:02:08;14.30;99.90
20803;DHT22;10562;-33.856;151.182;2023-07-13T08:04:39;14.20;99.90
20803;DHT22;10562;-33.856;151.182;2023-07-13T08:07:10;14.20;99.90
20803;DHT22;10562;-33.856;151.182;2023-07-13T08:09:40;14.20;99.90
20803;DHT22;10562;-33.856;151.182;2023-07-13T08:12:13;14.10;99.90
20803;DHT22;10562;-33.856;151.182;2023-07-13T08:14:44;14.10;99.90
20803;DHT22;10562;-33.856;151.182;2023-07-13T08:17:15;14.10;99.90
20803;DHT22;10562;-33.856;151.182;2023-07-13T08:19:46;14.00;99.90
20803;DHT22;10562;-33.856;151.182;2023-07-13T08:22:17;14.00;99.90
20803;DHT22;10562;-33.856;151.182;2023-07-13T08:24:48;13.90;99.90
20803;DHT22;10562;-33.856;151.182;2023-07-13T08:27:26;13.80;99.90
20803;DHT22;10562;-33.856;151.182;2023-07-13T08:29:57;13.80;99.90
20803;DHT22;10562;-33.856;151.182;2023-07-13T08:32:28;13.70;99.90
20803;DHT22;10562;-33.856;151.182;2023-07-13T08:34:59;13.70;99.90
20803;DHT22;10562;-33.856;151.182;2023-07-13T08:37:30;13.70;99.90
20803;DHT22;10562;-33.856;151.182;2023-07-13T08:40:00;13.70;99.90
20803;DHT22;10562;-33.856;151.182;2023-07-13T08:42:39;13.60;99.90
20803;DHT22;10562;-33.856;151.182;2023-07-13T08:45:18;13.60;99.90
20803;DHT22;10562;-33.856;151.182;2023-07-13T08:47:53;13.60;99.90
20803;DHT22;10562;-33.856;151.182;2023-07-13T08:50:28;13.60;99.90
20803;DHT22;10562;-33.856;151.182;2023-07-13T08:53:03;13.50;99.90
20803;DHT22;10562;-33.856;151.182;2023-07-13T08:55:35;13.50;99.90
20803;DHT22;10562;-33.856;151.182;2023-07-13T08:58:11;13.50;99.90
20803;DHT22;10562;-33.856;151.182;2023-07-13T09:00:48;13.40;99.90
20803;DHT22;10562;-33.856;151.182;2023-07-13T09:03:24;13.40;99.90
20803;DHT22;10562;-33.856;151.182;2023-07-13T09:05:58;13.30;99.90
20803;DHT22;10562;-33.856;151.182;2023-07-13T09:08:40;13.30;99.90
20803;DHT22;10562;-33.856;151.182;2023-07-13T09:11:35;13.30;99.90
20803;DHT22;10562;-33.856;151.182;2023-07-13T09:17:18;13.20;99.90
20803;DHT22;10562;-33.856;151.182;2023-07-13T09:19:53;13.10;99.90
20803;DHT22;10562;-33.856;151.182;2023-07-13T09:22:26;13.10;99.90
20803;DHT22;10562;-33.856;151.182;2023-07-13T09:25:00;13.00;99.90
20803;DHT22;10562;-33.856;151.182;2023-07-13T09:27:36;13.00;99.90
20803;DHT22;10562;-33.856;151.182;2023-07-13T09:30:26;13.00;99.90
20803;DHT22;10562;-33.856;151.182;2023-07-13T09:32:59;12.90;99.90
20803;DHT22;10562;-33.856;151.182;2023-07-13T09:35:30;12.80;99.90
20803;DHT22;10562;-33.856;151.182;2023-07-13T09:38:10;12.80;99.90
20803;DHT22;10562;-33.856;151.182;2023-07-13T09:41:01;12.70;99.90
20803;DHT22;10562;-33.856;151.182;2023-07-13T09:43:36;12.60;99.90
20803;DHT22;10562;-33.856;151.182;2023-07-13T09:46:21;12.60;99.90
20803;DHT22;10562;-33.856;151.182;2023-07-13T09:48:51;12.50;99.90
20803;DHT22;10562;-33.856;151.182;2023-07-13T09:51:22;12.50;99.90
20803;DHT22;10562;-33.856;151.182;2023-07-13T09:53:54;12.40;99.90
20803;DHT22;10562;-33.856;151.182;2023-07-13T09:56:28;12.40;99.90
20803;DHT22;10562;-33.856;151.182;2023-07-13T09:58:59;12.40;99.90
20803;DHT22;10562;-33.856;151.182;2023-07-13T10:01:36;12.40;99.90
20803;DHT22;10562;-33.856;151.182;2023-07-13T10:04:12;12.40;99.90
20803;DHT22;10562;-33.856;151.182;2023-07-13T10:06:43;12.50;99.90
20803;DHT22;10562;-33.856;151.182;2023-07-13T10:09:17;12.60;99.90
20803;DHT22;10562;-33.856;151.182;2023-07-13T10:11:47;12.80;99.90
20803;DHT22;10562;-33.856;151.182;2023-07-13T10:14:22;12.90;99.90
20803;DHT22;10562;-33.856;151.182;2023-07-13T10:16:59;13.00;99.90
20803;DHT22;10562;-33.856;151.182;2023-07-13T10:19:33;13.20;99.90
20803;DHT22;10562;-33.856;151.182;2023-07-13T10:22:19;13.30;99.90
20803;DHT22;10562;-33.856;151.182;2023-07-13T10:24:56;13.30;99.90
20803;DHT22;10562;-33.856;151.182;2023-07-13T10:27:32;13.40;99.90
20803;DHT22;10562;-33.856;151.182;2023-07-13T10:30:11;13.40;99.90
20803;DHT22;10562;-33.856;151.182;2023-07-13T10:32:45;13.40;99.90
20803;DHT22;10562;-33.856;151.182;2023-07-13T10:35:17;13.50;99.90
20803;DHT22;10562;-33.856;151.182;2023-07-13T10:37:53;13.40;99.90
20803;DHT22;10562;-33.856;151.182;2023-07-13T10:40:30;13.40;99.90
20803;DHT22;10562;-33.856;151.182;2023-07-13T10:43:06;13.30;99.90
20803;DHT22;10562;-33.856;151.182;2023-07-13T10:45:41;13.30;99.90
20803;DHT22;10562;-33.856;151.182;2023-07-13T10:48:15;13.10;99.90
20803;DHT22;10562;-33.856;151.182;2023-07-13T10:50:47;13.00;99.90
20803;DHT22;10562;-33.856;151.182;2023-07-13T10:53:21;12.90;99.90
20803;DHT22;10562;-33.856;151.182;2023-07-13T10:56:02;12.80;99.90
20803;DHT22;10562;-33.856;151.182;2023-07-13T10:58:34;12.70;99.90
20803;DHT22;10562;-33.856;151.182;2023-07-13T11:01:09;12.70;99.90
20803;DHT22;10562;-33.856;151.182;2023-07-13T11:03:50;12.60;99.90
20803;DHT22;10562;-33.856;151.182;2023-07-13T11:06:34;12.60;99.90
20803;DHT22;10562;-33.856;151.182;2023-07-13T11:09:30;12.60;99.90
20803;DHT22;10562;-33.856;151.182;2023-07-13T11:12:02;12.50;99.90
20803;DHT22;10562;-33.856;151.182;2023-07-13T11:14:41;12.50;99.90
20803;DHT22;10562;-33.856;151.182;2023-07-13T11:17:35;12.40;99.90
20803;DHT22;10562;-33.856;151.182;2023-07-13T11:20:24;12.40;99.90
20803;DHT22;10562;-33.856;151.182;2023-07-13T11:23:29;12.30;99.90
20803;DHT22;10562;-33.856;151.182;2023-07-13T11:26:01;12.30;99.90
20803;DHT22;10562;-33.856;151.182;2023-07-13T11:28:33;12.20;99.90
20803;DHT22;10562;-33.856;151.182;2023-07-13T11:31:15;12.20;99.90
20803;DHT22;10562;-33.856;151.182;2023-07-13T11:33:59;12.20;99.90
20803;DHT22;10562;-33.856;151.182;2023-07-13T11:36:37;12.20;99.90
20803;DHT22;10562;-33.856;151.182;2023-07-13T11:39:16;12.10;99.90
20803;DHT22;10562;-33.856;151.182;2023-07-13T11:41:51;12.00;99.90
20803;DHT22;10562;-33.856;151.182;2023-07-13T11:44:23;11.80;99.90
20803;DHT22;10562;-33.856;151.182;2023-07-13T11:46:56;11.80;99.90
20803;DHT22;10562;-33.856;151.182;2023-07-13T11:49:30;11.70;99.90
20803;DHT22;10562;-33.856;151.182;2023-07-13T11:52:04;11.60;99.90
20803;DHT22;10562;-33.856;151.182;2023-07-13T11:54:46;11.50;99.90
20803;DHT22;10562;-33.856;151.182;2023-07-13T11:57:25;11.40;99.90
20803;DHT22;10562;-33.856;151.182;2023-07-13T11:59:56;11.40;99.90
20803;DHT22;10562;-33.856;151.182;2023-07-13T12:02:31;11.40;99.90
20803;DHT22;10562;-33.856;151.182;2023-07-13T12:05:03;11.30;99.90
20803;DHT22;10562;-33.856;151.182;2023-07-13T12:07:39;11.30;99.90
20803;DHT22;10562;-33.856;151.182;2023-07-13T12:10:19;11.20;99.90
20803;DHT22;10562;-33.856;151.182;2023-07-13T12:12:51;11.20;99.90
20803;DHT22;10562;-33.856;151.182;2023-07-13T12:15:24;11.20;99.90
20803;DHT22;10562;-33.856;151.182;2023-07-13T12:17:58;11.10;99.90
20803;DHT22;10562;-33.856;151.182;2023-07-13T12:20:37;11.10;99.90
20803;DHT22;10562;-33.856;151.182;2023-07-13T12:23:20;11.10;99.90
20803;DHT22;10562;-33.856;151.182;2023-07-13T12:25:51;11.10;99.90
20803;DHT22;10562;-33.856;151.182;2023-07-13T12:28:30;11.10;99.90
20803;DHT22;10562;-33.856;151.182;2023-07-13T12:31:02;11.00;99.90
20803;DHT22;10562;-33.856;151.182;2023-07-13T12:33:34;11.00;99.90
20803;DHT22;10562;-33.856;151.182;2023-07-13T12:36:07;11.00;99.90
20803;DHT22;10562;-33.856;151.182;2023-07-13T12:38:41;10.90;99.90
20803;DHT22;10562;-33.856;151.182;2023-07-13T12:41:16;10.90;99.90
20803;DHT22;10562;-33.856;151.182;2023-07-13T12:43:47;10.80;99.90
20803;DHT22;10562;-33.856;151.182;2023-07-13T12:46:20;10.80;99.90
20803;DHT22;10562;-33.856;151.182;2023-07-13T12:48:52;10.80;99.90
20803;DHT22;10562;-33.856;151.182;2023-07-13T12:51:26;10.80;99.90
20803;DHT22;10562;-33.856;151.182;2023-07-13T12:54:15;10.70;99.90
20803;DHT22;10562;-33.856;151.182;2023-07-13T12:56:51;10.60;99.90
20803;DHT22;10562;-33.856;151.182;2023-07-13T12:59:28;10.60;99.90
20803;DHT22;10562;-33.856;151.182;2023-07-13T13:02:00;10.60;99.90
20803;DHT22;10562;-33.856;151.182;2023-07-13T13:04:32;10.60;99.90
20803;DHT22;10562;-33.856;151.182;2023-07-13T13:07:03;10.60;99.90
20803;DHT22;10562;-33.856;151.182;2023-07-13T13:09:36;10.60;99.90
20803;DHT22;10562;-33.856;151.182;2023-07-13T13:12:08;10.50;99.90
20803;DHT22;10562;-33.856;151.182;2023-07-13T13:14:39;10.50;99.90
20803;DHT22;10562;-33.856;151.182;2023-07-13T13:17:18;10.50;99.90
20803;DHT22;10562;-33.856;151.182;2023-07-13T13:19:51;10.50;99.90
20803;DHT22;10562;-33.856;151.182;2023-07-13T13:22:23;10.50;99.90
20803;DHT22;10562;-33.856;151.182;2023-07-13T13:24:56;10.40;99.90
20803;DHT22;10562;-33.856;151.182;2023-07-13T13:27:27;10.40;99.90
20803;DHT22;10562;-33.856;151.182;2023-07-13T13:29:59;10.30;99.90
20803;DHT22;10562;-33.856;151.182;2023-07-13T13:32:30;10.30;99.90
20803;DHT22;10562;-33.856;151.182;2023-07-13T13:35:01;10.30;99.90
20803;DHT22;10562;-33.856;151.182;2023-07-13T13:37:32;10.30;99.90
20803;DHT22;10562;-33.856;151.182;2023-07-13T13:40:12;10.30;99.90
20803;DHT22;10562;-33.856;151.182;2023-07-13T13:42:43;10.20;99.90
20803;DHT22;10562;-33.856;151.182;2023-07-13T13:45:14;10.20;99.90
20803;DHT22;10562;-33.856;151.182;2023-07-13T13:47:46;10.10;99.90
20803;DHT22;10562;-33.856;151.182;2023-07-13T13:50:20;10.10;99.90
20803;DHT22;10562;-33.856;151.182;2023-07-13T13:52:51;10.10;99.90
20803;DHT22;10562;-33.856;151.182;2023-07-13T13:55:24;10.00;99.90
20803;DHT22;10562;-33.856;151.182;2023-07-13T13:57:55;10.00;99.90
20803;DHT22;10562;-33.856;151.182;2023-07-13T14:00:26;9.90;99.90
20803;DHT22;10562;-33.856;151.182;2023-07-13T14:02:57;9.90;99.90
20803;DHT22;10562;-33.856;151.182;2023-07-13T14:05:27;9.90;99.90
20803;DHT22;10562;-33.856;151.182;2023-07-13T14:07:58;9.80;99.90
20803;DHT22;10562;-33.856;151.182;2023-07-13T14:10:31;9.80;99.90
20803;DHT22;10562;-33.856;151.182;2023-07-13T14:13:02;9.70;99.90
20803;DHT22;10562;-33.856;151.182;2023-07-13T14:15:34;9.80;99.90
20803;DHT22;10562;-33.856;151.182;2023-07-13T14:18:05;9.80;99.90
20803;DHT22;10562;-33.856;151.182;2023-07-13T14:20:36;9.70;99.90
20803;DHT22;10562;-33.856;151.182;2023-07-13T14:23:06;9.70;99.90
20803;DHT22;10562;-33.856;151.182;2023-07-13T14:25:39;9.70;99.90
20803;DHT22;10562;-33.856;151.182;2023-07-13T14:28:21;9.70;99.90
20803;DHT22;10562;-33.856;151.182;2023-07-13T14:30:53;9.70;99.90
20803;DHT22;10562;-33.856;151.182;2023-07-13T14:33:24;9.70;99.90
20803;DHT22;10562;-33.856;151.182;2023-07-13T14:35:55;9.70;99.90
20803;DHT22;10562;-33.856;151.182;2023-07-13T14:38:26;9.60;99.90
20803;DHT22;10562;-33.856;151.182;2023-07-13T14:40:59;9.60;99.90
20803;DHT22;10562;-33.856;151.182;2023-07-13T14:43:30;9.70;99.90
20803;DHT22;10562;-33.856;151.182;2023-07-13T14:46:00;9.70;99.90
20803;DHT22;10562;-33.856;151.182;2023-07-13T14:48:32;10.00;99.90
20803;DHT22;10562;-33.856;151.182;2023-07-13T14:51:03;10.10;99.90
20803;DHT22;10562;-33.856;151.182;2023-07-13T14:53:33;10.30;99.90
20803;DHT22;10562;-33.856;151.182;2023-07-13T14:56:12;10.40;99.90
20803;DHT22;10562;-33.856;151.182;2023-07-13T14:58:45;10.50;99.90
20803;DHT22;10562;-33.856;151.182;2023-07-13T15:01:16;10.60;99.90
20803;DHT22;10562;-33.856;151.182;2023-07-13T15:03:49;10.80;99.90
20803;DHT22;10562;-33.856;151.182;2023-07-13T15:06:21;10.90;99.90
20803;DHT22;10562;-33.856;151.182;2023-07-13T15:08:52;11.00;99.90
20803;DHT22;10562;-33.856;151.182;2023-07-13T15:11:25;11.00;99.90
20803;DHT22;10562;-33.856;151.182;2023-07-13T15:13:56;11.10;99.90
20803;DHT22;10562;-33.856;151.182;2023-07-13T15:16:27;11.10;99.90
20803;DHT22;10562;-33.856;151.182;2023-07-13T15:18:58;11.20;99.90
20803;DHT22;10562;-33.856;151.182;2023-07-13T15:21:30;11.20;99.90
20803;DHT22;10562;-33.856;151.182;2023-07-13T15:24:02;11.20;99.90
20803;DHT22;10562;-33.856;151.182;2023-07-13T15:26:37;11.20;99.90
20803;DHT22;10562;-33.856;151.182;2023-07-13T15:29:11;11.10;99.90
20803;DHT22;10562;-33.856;151.182;2023-07-13T15:31:42;11.10;99.90
20803;DHT22;10562;-33.856;151.182;2023-07-13T15:34:14;11.10;99.90
20803;DHT22;10562;-33.856;151.182;2023-07-13T15:36:45;11.00;99.90